createdAt,value
2023-04-23T00:01:04.758Z,100
2023-04-23T00:03:30.822Z,100
2023-04-23T00:05:57.002Z,100
2023-04-23T00:08:23.042Z,100
2023-04-23T00:10:49.178Z,100
2023-04-23T00:13:15.278Z,100
2023-04-23T00:15:40.452Z,96.8
2023-04-23T00:18:06.491Z,93.5
2023-04-23T00:20:32.585Z,92.8
2023-04-23T00:22:58.662Z,90.1
2023-04-23T00:25:24.749Z,90.5
2023-04-23T00:27:50.865Z,88
2023-04-23T00:30:17.028Z,88.6
2023-04-23T00:32:43.052Z,87.5
2023-04-23T00:35:09.174Z,87.8
2023-04-23T00:37:35.252Z,85.8
2023-04-23T00:40:01.358Z,86.9
2023-04-23T00:42:27.401Z,87.4
2023-04-23T00:44:53.481Z,88
2023-04-23T00:47:18.641Z,88
2023-04-23T00:49:44.717Z,88.6
2023-04-23T00:52:10.829Z,87.7
2023-04-23T00:54:36.874Z,85.5
2023-04-23T00:57:02.995Z,89.1
2023-04-23T00:59:29.179Z,89.9
2023-04-23T01:01:55.184Z,90.8
2023-04-23T01:04:21.267Z,89.6
2023-04-23T01:06:47.370Z,85.6
2023-04-23T01:09:13.477Z,86
2023-04-23T01:11:39.586Z,84
2023-04-23T01:14:05.672Z,83.6
2023-04-23T01:16:31.774Z,84.8
2023-04-23T01:18:56.872Z,83.4
2023-04-23T01:21:23.022Z,82.7
2023-04-23T01:23:49.053Z,83.8
2023-04-23T01:26:15.166Z,84.9
2023-04-23T01:28:41.259Z,82.7
2023-04-23T01:31:07.342Z,84.6
2023-04-23T01:33:33.424Z,84.5
2023-04-23T01:35:59.605Z,84.2
2023-04-23T01:38:25.630Z,85.1
2023-04-23T01:40:51.731Z,85.8
2023-04-23T01:43:17.831Z,85.7
2023-04-23T01:45:44.065Z,86.1
2023-04-23T01:48:10.016Z,86.9
2023-04-23T01:50:35.130Z,87.4
2023-04-23T01:53:01.271Z,88
2023-04-23T01:55:27.318Z,88.5
2023-04-23T01:57:53.392Z,88.7
2023-04-23T02:00:19.553Z,88.2
2023-04-23T02:02:45.612Z,88.5
2023-04-23T02:05:11.736Z,88.7
2023-04-23T02:07:37.787Z,89.3
2023-04-23T02:10:03.880Z,89.5
2023-04-23T02:12:30.068Z,89
2023-04-23T02:14:56.219Z,89.7
2023-04-23T02:17:22.200Z,90.6
2023-04-23T02:19:48.328Z,91.3
2023-04-23T02:22:13.445Z,91.6
2023-04-23T02:24:39.487Z,91.8
2023-04-23T02:27:05.576Z,92.1
2023-04-23T02:29:31.677Z,92.3
2023-04-23T02:31:57.869Z,92.8
2023-04-23T02:34:23.860Z,93.3
2023-04-23T02:36:49.968Z,93.4
2023-04-23T02:39:16.240Z,93.3
2023-04-23T02:41:42.188Z,93.2
2023-04-23T02:44:08.291Z,94.1
2023-04-23T02:46:34.347Z,93.9
2023-04-23T02:49:00.597Z,94.5
2023-04-23T02:51:26.547Z,94.5
2023-04-23T02:53:51.689Z,94.8
2023-04-23T02:56:17.760Z,95.5
2023-04-23T02:58:43.876Z,96.3
2023-04-23T03:01:09.967Z,96.5
2023-04-23T03:03:36.039Z,96.6
2023-04-23T03:06:02.246Z,96.8
2023-04-23T03:08:28.538Z,97.2
2023-04-23T03:10:54.459Z,97.2
2023-04-23T03:13:20.553Z,96.9
2023-04-23T03:15:46.655Z,96.8
2023-04-23T03:18:12.729Z,96.8
2023-04-23T03:20:38.823Z,96.9
2023-04-23T03:23:04.929Z,97
2023-04-23T03:25:31.069Z,97.5
2023-04-23T03:27:57.149Z,98.1
2023-04-23T03:30:23.306Z,98.4
2023-04-23T03:32:49.315Z,98.6
2023-04-23T03:35:15.516Z,99
2023-04-23T03:37:41.538Z,99
2023-04-23T03:40:07.601Z,98.8
2023-04-23T03:42:32.697Z,99.1
2023-04-23T03:44:58.875Z,99.2
2023-04-23T03:47:24.952Z,99.5
2023-04-23T03:49:51.004Z,100
2023-04-23T03:52:17.135Z,100
2023-04-23T03:54:43.230Z,100
2023-04-23T03:57:09.291Z,100
2023-04-23T03:59:35.383Z,100
2023-04-23T04:02:01.546Z,100
2023-04-23T04:04:27.682Z,100
2023-04-23T04:06:53.681Z,100
2023-04-23T04:09:19.801Z,100
2023-04-23T04:11:45.909Z,100
2023-04-23T04:14:10.992Z,100
2023-04-23T04:16:37.063Z,100
2023-04-23T04:19:03.211Z,100
2023-04-23T04:21:29.332Z,100
2023-04-23T04:23:55.349Z,100
2023-04-23T04:26:21.446Z,100
2023-04-23T04:28:47.652Z,100
2023-04-23T04:31:13.631Z,100
2023-04-23T04:33:39.735Z,100
2023-04-23T04:36:05.903Z,100
2023-04-23T04:38:31.961Z,100
2023-04-23T04:40:58.087Z,100
2023-04-23T04:43:24.112Z,100
2023-04-23T04:45:50.294Z,100
2023-04-23T04:48:16.324Z,100
2023-04-23T04:50:42.390Z,100
2023-04-23T04:53:08.489Z,100
2023-04-23T04:55:34.593Z,100
2023-04-23T04:58:00.679Z,100
2023-04-23T05:00:26.772Z,100
2023-04-23T05:02:52.884Z,100
2023-04-23T05:05:18.953Z,100
2023-04-23T05:07:45.184Z,100
2023-04-23T05:10:11.278Z,100
2023-04-23T05:12:37.376Z,100
2023-04-23T05:15:03.462Z,100
2023-04-23T05:17:29.558Z,100
2023-04-23T05:19:55.823Z,100
2023-04-23T05:22:21.774Z,100
2023-04-23T05:24:47.846Z,100
2023-04-23T05:27:14.001Z,100
2023-04-23T05:29:40.027Z,100
2023-04-23T05:32:06.127Z,100
2023-04-23T05:34:32.312Z,100
2023-04-23T05:36:58.330Z,100
2023-04-23T05:39:24.632Z,99.8
2023-04-23T05:41:50.545Z,99.7
2023-04-23T05:44:16.677Z,99.8
2023-04-23T05:46:42.785Z,99.8
2023-04-23T05:49:07.822Z,99.6
2023-04-23T05:51:33.937Z,99.8
2023-04-23T05:54:00.017Z,99.9
2023-04-23T05:56:26.102Z,99.4
2023-04-23T05:58:52.185Z,98.9
2023-04-23T06:01:18.285Z,98.9
2023-04-23T06:03:44.382Z,98.7
2023-04-23T06:06:10.724Z,98.3
2023-04-23T06:08:36.579Z,98.2
2023-04-23T06:11:02.703Z,97.7
2023-04-23T06:13:28.769Z,97.3
2023-04-23T06:15:54.906Z,97
2023-04-23T06:18:20.969Z,97.1
2023-04-23T06:20:47.061Z,96.4
2023-04-23T06:23:13.288Z,96.8
2023-04-23T06:25:38.346Z,96.6
2023-04-23T06:28:04.459Z,95.8
2023-04-23T06:30:30.442Z,96.4
2023-04-23T06:32:56.622Z,96
2023-04-23T06:35:22.655Z,95.6
2023-04-23T06:37:48.886Z,94.4
2023-04-23T06:40:14.848Z,93.7
2023-04-23T06:42:41.107Z,93.2
2023-04-23T06:45:07.025Z,93.3
2023-04-23T06:47:33.118Z,92.3
2023-04-23T06:49:59.234Z,92.8
2023-04-23T06:52:25.360Z,91.3
2023-04-23T06:54:51.510Z,89.8
2023-04-23T06:57:16.520Z,89.7
2023-04-23T06:59:42.624Z,89.4
2023-04-23T07:02:08.765Z,89.2
2023-04-23T07:04:34.950Z,88.7
2023-04-23T07:07:00.985Z,89.5
2023-04-23T07:09:27.012Z,88.7
2023-04-23T07:11:53.161Z,88.6
2023-04-23T07:14:19.219Z,86.9
2023-04-23T07:16:45.283Z,85.3
2023-04-23T07:19:11.442Z,85.1
2023-04-23T07:21:37.553Z,85.6
2023-04-23T07:24:03.583Z,85.4
2023-04-23T07:26:29.757Z,85.3
2023-04-23T07:28:54.795Z,84.8
2023-04-23T07:31:20.886Z,85.4
2023-04-23T07:33:47.004Z,85.3
2023-04-23T07:36:13.134Z,81.6
2023-04-23T07:38:39.238Z,81
2023-04-23T07:41:05.255Z,82.6
2023-04-23T07:43:31.360Z,82.9
2023-04-23T07:45:57.483Z,80.1
2023-04-23T07:48:23.541Z,79.9
2023-04-23T07:50:49.655Z,80.5
2023-04-23T07:53:15.733Z,79.5
2023-04-23T07:55:41.842Z,79.2
2023-04-23T07:58:07.926Z,79.3
2023-04-23T08:00:33.022Z,79
2023-04-23T08:02:59.175Z,78.5
2023-04-23T08:05:25.256Z,78.9
2023-04-23T08:07:51.361Z,78.9
2023-04-23T08:10:17.468Z,78.2
2023-04-23T08:12:43.552Z,78
2023-04-23T08:15:09.669Z,77.5
2023-04-23T08:17:35.742Z,76.9
2023-04-23T08:20:01.961Z,78.3
2023-04-23T08:22:27.933Z,79.1
2023-04-23T08:24:54.221Z,78.3
2023-04-23T08:27:20.165Z,77.3
2023-04-23T08:29:46.280Z,76.6
2023-04-23T08:32:11.293Z,77.7
2023-04-23T08:34:37.378Z,77
2023-04-23T08:37:03.666Z,75.3
2023-04-23T08:39:29.575Z,73.8
2023-04-23T08:41:55.661Z,74.5
2023-04-23T08:44:21.841Z,72.5
2023-04-23T08:46:47.842Z,74.9
2023-04-23T08:49:13.992Z,73
2023-04-23T08:51:40.059Z,71.8
2023-04-23T08:54:06.178Z,72.8
2023-04-23T08:56:32.288Z,71.7
2023-04-23T08:58:58.400Z,73.2
2023-04-23T09:01:24.428Z,73
2023-04-23T09:06:16.646Z,71
2023-04-23T09:08:41.732Z,72.2
2023-04-23T09:11:07.813Z,70.8
2023-04-23T09:13:33.936Z,71.5
2023-04-23T09:16:00.160Z,70.3
2023-04-23T09:18:26.142Z,67.9
2023-04-23T09:20:52.293Z,70.1
2023-04-23T09:23:18.300Z,68.4
2023-04-23T09:25:44.560Z,69.2
2023-04-23T09:28:10.600Z,67.9
2023-04-23T09:30:36.803Z,68.1
2023-04-23T09:33:02.670Z,65.4
2023-04-23T09:35:28.777Z,64.5
2023-04-23T09:37:54.860Z,63.3
2023-04-23T09:40:19.991Z,61.5
2023-04-23T09:42:46.077Z,63.9
2023-04-23T09:45:12.163Z,66.6
2023-04-23T09:47:38.261Z,64.9
2023-04-23T09:50:04.382Z,64.2
2023-04-23T09:52:30.457Z,64.7
2023-04-23T09:54:56.559Z,64.9
2023-04-23T09:57:22.649Z,64.4
2023-04-23T09:59:48.935Z,64
2023-04-23T10:02:14.908Z,63.1
2023-04-23T10:04:40.936Z,62.2
2023-04-23T10:07:07.019Z,62.6
2023-04-23T10:09:33.263Z,60.8
2023-04-23T10:11:58.251Z,62.2
2023-04-23T10:14:24.348Z,60.5
2023-04-23T10:16:50.554Z,59.4
2023-04-23T10:19:17.224Z,59.9
2023-04-23T10:21:42.622Z,59.7
2023-04-23T10:24:08.783Z,59.7
2023-04-23T10:26:34.805Z,59.4
2023-04-23T10:29:01.032Z,60.6
2023-04-23T10:31:27.010Z,58.3
2023-04-23T10:33:53.081Z,56.4
2023-04-23T10:36:19.290Z,53.9
2023-04-23T10:38:45.307Z,53.9
2023-04-23T10:41:11.462Z,56
2023-04-23T10:43:36.489Z,55.6
2023-04-23T10:46:02.795Z,54.7
2023-04-23T10:48:28.691Z,53.7
2023-04-23T10:50:54.786Z,52.2
2023-04-23T10:53:20.871Z,53.6
2023-04-23T10:55:47.017Z,54.4
2023-04-23T10:58:13.138Z,54.9
2023-04-23T11:00:39.209Z,53.5
2023-04-23T11:03:05.352Z,54.1
2023-04-23T11:05:31.434Z,53.2
2023-04-23T11:07:57.528Z,54.4
2023-04-23T11:10:23.603Z,54.6
2023-04-23T11:12:49.687Z,54.7
2023-04-23T11:15:14.911Z,55.7
2023-04-23T11:17:39.884Z,54.3
2023-04-23T11:20:06.044Z,54
2023-04-23T11:22:32.220Z,54.6
2023-04-23T11:24:58.282Z,55.3
2023-04-23T11:27:24.287Z,54.6
2023-04-23T11:29:50.454Z,55.4
2023-04-23T11:32:16.657Z,54.4
2023-04-23T11:34:42.537Z,57.5
2023-04-23T11:37:08.650Z,55.5
2023-04-23T11:39:34.865Z,54.4
2023-04-23T11:42:00.929Z,56.2
2023-04-23T11:44:26.929Z,57.5
2023-04-23T11:46:53.015Z,56.5
2023-04-23T11:49:18.148Z,55
2023-04-23T11:51:44.213Z,54.9
2023-04-23T11:54:10.307Z,54.2
2023-04-23T11:56:36.416Z,54.8
2023-04-23T11:59:02.489Z,55.7
2023-04-23T12:01:28.663Z,54.3
2023-04-23T12:03:54.688Z,53.3
2023-04-23T12:06:20.799Z,53.1
2023-04-23T12:08:46.895Z,54.2
2023-04-23T12:11:13.058Z,54.9
2023-04-23T12:13:39.076Z,54.4
2023-04-23T12:16:05.224Z,54.7
2023-04-23T12:20:57.470Z,54.3
2023-04-23T12:23:22.459Z,54.4
2023-04-23T12:25:48.579Z,54
2023-04-23T12:28:14.664Z,53.3
2023-04-23T12:30:40.802Z,53.5
2023-04-23T12:33:06.909Z,53.8
2023-04-23T12:35:32.984Z,55
2023-04-23T12:37:59.048Z,54.9
2023-04-23T12:40:25.239Z,54.8
2023-04-23T12:42:51.236Z,53.8
2023-04-23T12:45:17.336Z,50.6
2023-04-23T12:47:43.429Z,53
2023-04-23T12:50:09.608Z,51.8
2023-04-23T12:52:35.631Z,51.4
2023-04-23T12:55:00.748Z,52.4
2023-04-23T12:57:26.890Z,51.9
2023-04-23T12:59:53.009Z,53.1
2023-04-23T13:02:19.039Z,54.6
2023-04-23T13:04:45.099Z,53.4
2023-04-23T13:07:11.219Z,52.8
2023-04-23T13:09:37.367Z,51.1
2023-04-23T13:12:03.488Z,51.6
2023-04-23T13:14:29.523Z,53.5
2023-04-23T13:16:55.571Z,54.7
2023-04-23T13:19:21.676Z,53.1
2023-04-23T13:21:47.832Z,51.8
2023-04-23T13:24:13.858Z,53.1
2023-04-23T13:26:40.143Z,51.8
2023-04-23T13:29:06.198Z,53.2
2023-04-23T13:31:32.351Z,53.5
2023-04-23T13:33:58.386Z,51.7
2023-04-23T13:36:24.461Z,51.7
2023-04-23T13:38:50.574Z,51
2023-04-23T13:41:16.700Z,50.3
2023-04-23T13:43:42.758Z,47.3
2023-04-23T13:46:08.861Z,48.4
2023-04-23T13:48:34.938Z,49.6
2023-04-23T13:51:01.078Z,48.1
2023-04-23T13:53:27.127Z,47.9
2023-04-23T13:55:53.256Z,46.8
2023-04-23T13:58:18.346Z,46.8
2023-04-23T14:00:44.451Z,45
2023-04-23T14:03:10.634Z,44.9
2023-04-23T14:05:36.742Z,46
2023-04-23T14:08:02.721Z,46.5
2023-04-23T14:10:28.924Z,48.3
2023-04-23T14:12:54.972Z,51.2
2023-04-23T14:15:21.091Z,50.6
2023-04-23T14:17:47.115Z,50.2
2023-04-23T14:20:13.204Z,49
2023-04-23T14:22:39.337Z,47.4
2023-04-23T14:25:05.387Z,47.4
2023-04-23T14:27:31.549Z,47
2023-04-23T14:29:56.638Z,46.9
2023-04-23T14:32:22.699Z,45.5
2023-04-23T14:34:48.769Z,46.5
2023-04-23T14:37:14.980Z,46.3
2023-04-23T14:39:40.968Z,45.2
2023-04-23T14:42:07.101Z,46
2023-04-23T14:44:33.353Z,46.2
2023-04-23T14:46:59.359Z,44.3
2023-04-23T14:49:25.347Z,43.4
2023-04-23T14:51:51.533Z,46.5
2023-04-23T14:54:17.671Z,46.6
2023-04-23T14:56:43.650Z,46.1
2023-04-23T14:59:09.788Z,46
2023-04-23T15:01:34.889Z,46.6
2023-04-23T15:04:00.970Z,49.5
2023-04-23T15:06:27.022Z,47.8
2023-04-23T15:08:53.122Z,46.8
2023-04-23T15:11:19.222Z,46.4
2023-04-23T15:13:45.340Z,47.6
2023-04-23T15:16:11.431Z,47.4
2023-04-23T15:18:37.516Z,48.6
2023-04-23T15:21:03.742Z,48.6
2023-04-23T15:23:29.746Z,49
2023-04-23T15:25:55.818Z,49.3
2023-04-23T15:28:21.924Z,50.2
2023-04-23T15:30:48.034Z,50
2023-04-23T15:33:13.124Z,50.4
2023-04-23T15:35:39.219Z,48.7
2023-04-23T15:38:05.324Z,50.3
2023-04-23T15:40:31.485Z,52.1
2023-04-23T15:42:57.525Z,51.1
2023-04-23T15:45:23.634Z,51.8
2023-04-23T15:47:49.697Z,51.2
2023-04-23T15:50:15.764Z,51.1
2023-04-23T15:52:41.868Z,51.2
2023-04-23T15:55:07.979Z,50.9
2023-04-23T15:57:34.193Z,51
2023-04-23T16:00:00.174Z,52.2
2023-04-23T16:02:26.256Z,52.3
2023-04-23T16:04:51.367Z,53.6
2023-04-23T16:07:17.524Z,53.2
2023-04-23T16:09:43.739Z,53.3
2023-04-23T16:12:09.804Z,54.7
2023-04-23T16:14:35.938Z,58.1
2023-04-23T16:17:02.036Z,64.7
2023-04-23T16:19:28.059Z,68.3
2023-04-23T16:21:54.220Z,71.4
2023-04-23T16:24:20.270Z,73.7
2023-04-23T16:26:46.455Z,74.8
2023-04-23T16:29:12.406Z,74.2
2023-04-23T16:31:38.620Z,77.7
2023-04-23T16:34:04.636Z,70.9
2023-04-23T16:36:29.748Z,76.3
2023-04-23T16:38:55.712Z,79.2
2023-04-23T16:41:21.934Z,85.8
2023-04-23T16:43:48.051Z,88.4
2023-04-23T16:46:14.114Z,90
2023-04-23T16:48:40.263Z,89.8
2023-04-23T16:51:06.370Z,84.5
2023-04-23T16:53:32.449Z,83
2023-04-23T16:55:58.511Z,88
2023-04-23T16:58:24.659Z,90.3
2023-04-23T17:00:50.672Z,93.1
2023-04-23T17:03:16.838Z,94.5
2023-04-23T17:05:42.772Z,94.9
2023-04-23T17:08:08.019Z,96.8
2023-04-23T17:10:33.970Z,97.7
2023-04-23T17:13:00.224Z,98.8
2023-04-23T17:15:26.324Z,99.1
2023-04-23T17:17:52.396Z,99.7
2023-04-23T17:20:18.569Z,100
2023-04-23T17:22:44.601Z,100
2023-04-23T17:25:10.723Z,100
2023-04-23T17:27:36.776Z,100
2023-04-23T17:30:02.771Z,100
2023-04-23T17:32:29.050Z,100
2023-04-23T17:34:54.989Z,100
2023-04-23T17:37:21.172Z,100
2023-04-23T17:39:46.399Z,100
2023-04-23T17:42:12.383Z,100
2023-04-23T17:44:38.472Z,100
2023-04-23T17:47:04.481Z,100
2023-04-23T17:49:30.623Z,100
2023-04-23T17:51:56.788Z,100
2023-04-23T17:54:22.844Z,100
2023-04-23T17:56:48.943Z,100
2023-04-23T17:59:15.032Z,100
2023-04-23T18:01:41.093Z,100
2023-04-23T18:04:07.229Z,100
2023-04-23T18:06:33.162Z,100
2023-04-23T18:08:59.275Z,100
2023-04-23T18:11:24.401Z,100
2023-04-23T18:13:50.508Z,100
2023-04-23T18:16:16.703Z,100
2023-04-23T18:18:42.658Z,100
2023-04-23T18:21:08.935Z,100
2023-04-23T18:23:34.853Z,100
2023-04-23T18:26:00.953Z,100
2023-04-23T18:28:27.170Z,100
2023-04-23T18:30:53.301Z,100
2023-04-23T18:33:19.299Z,100
2023-04-23T18:35:45.328Z,100
2023-04-23T18:38:11.580Z,100
2023-04-23T18:40:37.526Z,100
2023-04-23T18:43:02.636Z,100
2023-04-23T18:45:28.737Z,100
2023-04-23T18:47:54.827Z,100
2023-04-23T18:50:20.915Z,100
2023-04-23T18:52:47.032Z,100
2023-04-23T18:55:13.106Z,100
2023-04-23T18:57:39.208Z,100
2023-04-23T19:00:05.359Z,100
2023-04-23T19:02:31.425Z,100
2023-04-23T19:04:57.506Z,100
2023-04-23T19:07:23.590Z,100
2023-04-23T19:09:49.676Z,100
2023-04-23T19:12:15.769Z,100
2023-04-23T19:14:40.883Z,100
2023-04-23T19:17:06.992Z,100
2023-04-23T19:19:33.128Z,100
2023-04-23T19:21:59.172Z,100
2023-04-23T19:24:25.259Z,100
2023-04-23T19:26:50.403Z,100
2023-04-23T19:29:16.490Z,100
2023-04-23T19:31:42.581Z,100
2023-04-23T19:34:08.684Z,100
2023-04-23T19:36:34.776Z,100
2023-04-23T19:39:00.856Z,100
2023-04-23T19:41:26.952Z,100
2023-04-23T19:43:53.056Z,100
2023-04-23T19:46:19.150Z,100
2023-04-23T19:48:45.256Z,100
2023-04-23T19:51:11.348Z,100
2023-04-23T19:53:37.434Z,100
2023-04-23T19:56:03.526Z,100
2023-04-23T19:58:28.638Z,100
2023-04-23T20:00:54.744Z,100
2023-04-23T20:03:20.816Z,100
2023-04-23T20:05:46.987Z,100
2023-04-23T20:08:13.022Z,100
2023-04-23T20:10:39.099Z,100
2023-04-23T20:13:05.204Z,100
2023-04-23T20:15:31.293Z,100
2023-04-23T20:17:57.422Z,100
2023-04-23T20:20:23.504Z,100
2023-04-23T20:22:49.588Z,100
2023-04-23T20:25:15.687Z,100
2023-04-23T20:27:41.761Z,100
2023-04-23T20:30:06.896Z,100
2023-04-23T20:32:32.976Z,100
2023-04-23T20:34:59.078Z,100
2023-04-23T20:37:25.185Z,100
2023-04-23T20:39:51.264Z,100
2023-04-23T20:42:17.360Z,100
2023-04-23T20:44:43.464Z,100
2023-04-23T20:47:09.552Z,100
2023-04-23T20:49:35.641Z,100
2023-04-23T20:52:01.749Z,100
2023-04-23T20:54:27.828Z,100
2023-04-23T20:56:53.939Z,100
2023-04-23T20:59:20.035Z,100
2023-04-23T21:01:45.150Z,100
2023-04-23T21:04:11.239Z,100
2023-04-23T21:06:37.344Z,100
2023-04-23T21:09:03.438Z,100
2023-04-23T21:11:29.516Z,100
2023-04-23T21:13:55.616Z,100
2023-04-23T21:16:21.727Z,100
2023-04-23T21:18:47.806Z,100
2023-04-23T21:21:13.892Z,100
2023-04-23T21:23:40.005Z,100
2023-04-23T21:26:06.080Z,100
2023-04-23T21:28:32.181Z,100
2023-04-23T21:30:58.288Z,100
2023-04-23T21:33:23.387Z,100
2023-04-23T21:35:49.481Z,100
2023-04-23T21:38:15.626Z,100
2023-04-23T21:40:41.751Z,100
2023-04-23T21:43:07.806Z,100
2023-04-23T21:45:33.911Z,100
2023-04-23T21:47:59.990Z,100
2023-04-23T21:50:26.101Z,100
2023-04-23T21:52:52.179Z,100
2023-04-23T21:55:18.287Z,100
2023-04-23T21:57:44.381Z,100
2023-04-23T22:00:10.523Z,100
2023-04-23T22:02:36.536Z,100
2023-04-23T22:05:01.649Z,100
2023-04-23T22:07:27.730Z,100
2023-04-23T22:09:53.825Z,100
2023-04-23T22:12:19.929Z,100
2023-04-23T22:14:46.017Z,99.8
2023-04-23T22:17:12.122Z,100
2023-04-23T22:19:38.215Z,100
2023-04-23T22:22:04.354Z,99.7
2023-04-23T22:24:30.392Z,99.8
2023-04-23T22:26:56.503Z,99.2
2023-04-23T22:29:22.587Z,99.5
2023-04-23T22:31:48.701Z,98.7
2023-04-23T22:34:14.860Z,98.8
2023-04-23T22:36:39.904Z,98.7
2023-04-23T22:39:06.005Z,98.7
2023-04-23T22:41:32.089Z,98.9
2023-04-23T22:43:58.190Z,99
2023-04-23T22:46:24.276Z,98.8
2023-04-23T22:48:50.366Z,98.6
2023-04-23T22:51:16.504Z,98.8
2023-04-23T22:53:42.568Z,98.3
2023-04-23T22:56:08.670Z,97.8
2023-04-23T22:58:34.762Z,97.3
2023-04-23T23:01:00.860Z,97.3
2023-04-23T23:03:26.965Z,96.3
2023-04-23T23:05:53.069Z,95.6
2023-04-23T23:08:18.158Z,96
2023-04-23T23:10:44.246Z,96.3
2023-04-23T23:13:10.371Z,96.9
2023-04-23T23:15:36.433Z,98.3
2023-04-23T23:18:02.556Z,98.6
2023-04-23T23:20:28.620Z,99.2
2023-04-23T23:22:54.736Z,99.8
2023-04-23T23:25:20.827Z,100
2023-04-23T23:27:46.911Z,100
2023-04-23T23:30:13.002Z,100
2023-04-23T23:32:39.104Z,100
2023-04-23T23:35:05.194Z,100
2023-04-23T23:37:31.301Z,100
2023-04-23T23:39:56.407Z,100
2023-04-23T23:42:22.499Z,100
2023-04-23T23:44:48.601Z,100
2023-04-23T23:47:14.704Z,100
2023-04-23T23:49:40.798Z,100
2023-04-23T23:52:06.892Z,100
2023-04-23T23:54:32.989Z,100
2023-04-23T23:56:59.064Z,100
2023-04-23T23:59:25.164Z,100
